Time;durP1;ratioP1;P1;durP2;ratioP2;P2;SDS_P1;SDS_P2;PMS_P1;PMS_P2;Temp;Humidity;BMP_temperature;BMP_pressure;BME280_temperature;BME280_humidity;BME280_pressure;Samples;Min_cycle;Max_cycle;Signal;HPM_P1;HPM_P2
2022/02/21 00:02:16;;;;;;;;;;;;;;;4.12;49.17;100381.85;117428;1182;21832;-57
2022/02/21 00:04:44;;;;;;;;;;;;;;;4.12;49.39;100380.46;117474;1185;22945;-54
2022/02/21 00:07:14;;;;;;;;;;;;;;;4.13;49.28;100378.55;117364;1183;22973;-57
2022/02/21 00:09:42;;;;;;;;;;;;;;;4.13;49.31;100375.45;117356;1183;23515;-58
2022/02/21 00:12:14;;;;;;;;;;;;;;;4.13;49.42;100380.48;117373;1186;23693;-53
2022/02/21 00:14:42;;;;;;;;;;;;;;;4.12;49.26;100380.30;117282;1186;21836;-57
2022/02/21 00:17:12;;;;;;;;;;;;;;;4.12;49.39;100378.04;117404;1182;21889;-54
2022/02/21 00:19:41;;;;;;;;;;;;;;;4.10;49.51;100381.98;117440;1183;22910;-57
2022/02/21 00:22:09;;;;;;;;;;;;;;;4.05;49.39;100376.20;117407;1183;22619;-57
2022/02/21 00:24:49;;;;;;;;;;;;;;;4.01;49.38;100380.65;117394;1182;21826;-57
2022/02/21 00:27:17;;;;;;;;;;;;;;;4.00;49.40;100381.48;117300;1186;21841;-54
2022/02/21 00:29:47;;;;;;;;;;;;;;;3.99;49.48;100378.53;117432;1186;21891;-57
2022/02/21 00:32:15;;;;;;;;;;;;;;;3.99;49.52;100380.80;117423;1185;22880;-57
2022/02/21 00:34:43;;;;;;;;;;;;;;;3.99;49.52;100376.98;117375;1186;21838;-54
2022/02/21 00:37:11;;;;;;;;;;;;;;;3.96;49.42;100372.26;117345;1185;23436;-54
2022/02/21 00:39:39;;;;;;;;;;;;;;;3.93;49.45;100371.86;117460;1185;21829;-57
2022/02/21 00:42:07;;;;;;;;;;;;;;;3.85;49.42;100366.88;117405;1182;21841;-57
2022/02/21 00:44:37;;;;;;;;;;;;;;;3.76;49.42;100368.64;117364;1184;21835;-54
2022/02/21 00:47:05;;;;;;;;;;;;;;;3.65;49.32;100369.17;117628;1182;23541;-54
2022/02/21 00:49:40;;;;;;;;;;;;;;;3.55;49.38;100370.57;117404;1184;21876;-53
2022/02/21 00:52:09;;;;;;;;;;;;;;;3.44;49.36;100372.66;117378;1185;21835;-57
2022/02/21 00:54:36;;;;;;;;;;;;;;;3.35;49.31;100373.02;117377;1182;24121;-53
2022/02/21 00:57:05;;;;;;;;;;;;;;;3.26;49.47;100366.79;117420;1186;21845;-54
2022/02/21 00:59:33;;;;;;;;;;;;;;;3.20;49.28;100365.31;117391;1183;21839;-58
2022/02/21 01:02:01;;;;;;;;;;;;;;;3.15;49.46;100363.64;117424;1182;21846;-57
2022/02/21 01:04:29;;;;;;;;;;;;;;;3.10;49.35;100359.74;117406;1182;21835;-57
2022/02/21 01:06:57;;;;;;;;;;;;;;;3.03;49.46;100362.23;117409;1185;21826;-54
2022/02/21 01:09:38;;;;;;;;;;;;;;;2.97;49.36;100361.95;117393;1186;21839;-58
2022/02/21 01:12:07;;;;;;;;;;;;;;;2.95;49.52;100358.10;117368;1182;21848;-53
2022/02/21 01:14:36;;;;;;;;;;;;;;;2.98;49.70;100360.05;117462;1183;22784;-57
2022/02/21 01:17:04;;;;;;;;;;;;;;;3.00;49.61;100358.54;117432;1183;24113;-58
2022/02/21 01:19:32;;;;;;;;;;;;;;;3.01;49.78;100358.04;117387;1183;21829;-58
2022/02/21 01:22:03;;;;;;;;;;;;;;;3.03;49.90;100352.70;117483;1185;21866;-57
2022/02/21 01:24:31;;;;;;;;;;;;;;;3.04;49.66;100353.24;117424;1184;21834;-57
2022/02/21 01:26:59;;;;;;;;;;;;;;;3.06;49.75;100350.16;117280;1182;21989;-54
2022/02/21 01:29:27;;;;;;;;;;;;;;;3.09;49.87;100345.88;117465;1188;22898;-53
2022/02/21 01:31:55;;;;;;;;;;;;;;;3.14;49.87;100349.08;117375;1176;21825;-57
2022/02/21 01:34:23;;;;;;;;;;;;;;;3.17;50.04;100347.58;117426;1182;21843;-57
2022/02/21 01:36:52;;;;;;;;;;;;;;;3.20;49.96;100347.46;117455;1183;23436;-58
2022/02/21 01:39:20;;;;;;;;;;;;;;;3.23;50.08;100347.33;117437;1183;22953;-58
2022/02/21 01:41:49;;;;;;;;;;;;;;;3.24;49.93;100345.44;117434;1183;21846;-53
2022/02/21 01:44:17;;;;;;;;;;;;;;;3.26;50.00;100343.91;117347;1186;23515;-54
2022/02/21 01:46:45;;;;;;;;;;;;;;;3.25;50.00;100342.52;117358;1186;21906;-57
2022/02/21 01:49:13;;;;;;;;;;;;;;;3.25;49.98;100340.42;117374;1180;21848;-54
2022/02/21 01:51:41;;;;;;;;;;;;;;;3.26;50.07;100338.88;117429;1183;21839;-53
2022/02/21 01:54:16;;;;;;;;;;;;;;;3.27;50.05;100340.28;117285;1182;24133;-58
2022/02/21 01:56:44;;;;;;;;;;;;;;;3.27;49.99;100337.16;117352;1183;21828;-53
2022/02/21 01:59:12;;;;;;;;;;;;;;;3.28;50.01;100338.56;117328;1185;21838;-53
2022/02/21 02:01:40;;;;;;;;;;;;;;;3.29;50.11;100342.40;117380;1186;21839;-53
2022/02/21 02:04:08;;;;;;;;;;;;;;;3.30;50.04;100342.77;117397;1183;23423;-53
2022/02/21 02:06:37;;;;;;;;;;;;;;;3.30;50.09;100339.13;117310;1182;21816;-57
2022/02/21 02:09:05;;;;;;;;;;;;;;;3.31;50.07;100342.42;117427;1182;21826;-57
2022/02/21 02:11:36;;;;;;;;;;;;;;;3.31;50.10;100340.17;117445;1183;21844;-59
2022/02/21 02:14:04;;;;;;;;;;;;;;;3.31;50.12;100340.70;117325;1185;23512;-59
2022/02/21 02:16:32;;;;;;;;;;;;;;;3.28;50.20;100339.78;117476;1186;24104;-59
2022/02/21 02:19:00;;;;;;;;;;;;;;;3.27;50.13;100340.29;117477;1185;23342;-54
2022/02/21 02:21:28;;;;;;;;;;;;;;;3.26;50.23;100338.72;117460;1185;21826;-58
2022/02/21 02:23:57;;;;;;;;;;;;;;;3.24;50.15;100346.48;117387;1185;24164;-54
2022/02/21 02:26:24;;;;;;;;;;;;;;;3.22;50.18;100347.13;117438;1183;23872;-53
2022/02/21 02:28:53;;;;;;;;;;;;;;;3.20;50.02;100348.84;117424;1183;23416;-53
2022/02/21 02:31:21;;;;;;;;;;;;;;;3.18;50.14;100350.02;117446;1183;23326;-59
2022/02/21 02:33:50;;;;;;;;;;;;;;;3.17;50.25;100349.13;117450;1186;21831;-58
2022/02/21 02:36:18;;;;;;;;;;;;;;;3.18;50.12;100354.86;117438;1184;21835;-55
2022/02/21 02:38:46;;;;;;;;;;;;;;;3.19;50.42;100359.38;117447;1186;21842;-58
2022/02/21 02:41:14;;;;;;;;;;;;;;;3.21;50.28;100355.61;117465;1183;21835;-56
2022/02/21 02:43:42;;;;;;;;;;;;;;;3.23;50.45;100354.61;117441;1183;21837;-54
2022/02/21 02:46:11;;;;;;;;;;;;;;;3.24;50.35;100355.34;117402;1182;21897;-52
2022/02/21 02:48:39;;;;;;;;;;;;;;;3.25;50.32;100358.30;117433;1186;21845;-53
2022/02/21 02:51:07;;;;;;;;;;;;;;;3.25;50.32;100360.36;117408;1185;21863;-58
2022/02/21 02:53:35;;;;;;;;;;;;;;;3.24;50.30;100358.61;117444;1181;22302;-53
2022/02/21 02:56:03;;;;;;;;;;;;;;;3.21;50.27;100360.45;117431;1183;21873;-59
2022/02/21 02:58:31;;;;;;;;;;;;;;;3.15;50.22;100359.52;117447;1183;23443;-57
2022/02/21 03:00:59;;;;;;;;;;;;;;;3.11;50.23;100357.52;117281;1183;21841;-52
2022/02/21 03:03:28;;;;;;;;;;;;;;;3.07;50.36;100357.98;117477;1182;22951;-52
2022/02/21 03:05:56;;;;;;;;;;;;;;;3.07;50.40;100356.92;117428;1186;21850;-53
2022/02/21 03:08:25;;;;;;;;;;;;;;;3.05;50.21;100354.47;117441;1183;22926;-56
2022/02/21 03:10:53;;;;;;;;;;;;;;;3.04;50.24;100351.85;117379;1183;23072;-53
2022/02/21 03:13:21;;;;;;;;;;;;;;;3.03;50.46;100349.41;117395;1183;21811;-57
2022/02/21 03:15:49;;;;;;;;;;;;;;;3.03;50.34;100347.33;117368;1182;21838;-57
2022/02/21 03:18:18;;;;;;;;;;;;;;;3.02;50.44;100345.23;117372;1186;21841;-57
2022/02/21 03:20:46;;;;;;;;;;;;;;;3.02;50.41;100340.70;117340;1186;21845;-57
2022/02/21 03:23:16;;;;;;;;;;;;;;;2.99;50.34;100342.92;117354;1186;21842;-54
2022/02/21 03:25:44;;;;;;;;;;;;;;;2.96;50.33;100345.46;117449;1186;21835;-58
2022/02/21 03:28:12;;;;;;;;;;;;;;;2.94;50.28;100348.20;117395;1182;23871;-57
2022/02/21 03:30:40;;;;;;;;;;;;;;;2.91;50.46;100346.23;117354;1185;22696;-53
2022/02/21 03:33:08;;;;;;;;;;;;;;;2.89;50.40;100345.85;117387;1183;23432;-53
2022/02/21 03:35:36;;;;;;;;;;;;;;;2.87;50.28;100347.73;117392;1186;22786;-53
2022/02/21 03:38:04;;;;;;;;;;;;;;;2.87;50.44;100346.51;117451;1183;23541;-53
2022/02/21 03:40:33;;;;;;;;;;;;;;;2.88;50.53;100348.78;117440;1188;23413;-56
2022/02/21 03:43:02;;;;;;;;;;;;;;;2.89;50.60;100347.06;117432;1186;21839;-56
2022/02/21 03:45:31;;;;;;;;;;;;;;;2.90;50.35;100343.27;117438;1183;21839;-55
2022/02/21 03:47:59;;;;;;;;;;;;;;;2.93;50.48;100338.12;117346;1183;24103;-57
2022/02/21 03:50:27;;;;;;;;;;;;;;;2.95;50.58;100334.02;117451;1183;21844;-57
2022/02/21 03:52:55;;;;;;;;;;;;;;;2.97;50.59;100335.26;117340;1182;21835;-53
2022/02/21 03:55:23;;;;;;;;;;;;;;;2.99;50.66;100329.04;117388;1186;21835;-57
2022/02/21 03:57:51;;;;;;;;;;;;;;;3.01;50.66;100327.70;117456;1183;21839;-56
2022/02/21 04:00:21;;;;;;;;;;;;;;;3.02;50.68;100320.09;117479;1183;21873;-56
2022/02/21 04:02:49;;;;;;;;;;;;;;;3.04;50.73;100317.36;117435;1185;21836;-53
2022/02/21 04:05:17;;;;;;;;;;;;;;;3.06;50.69;100316.88;117457;1185;21834;-56
2022/02/21 04:07:46;;;;;;;;;;;;;;;3.08;50.62;100310.85;117362;1186;21826;-57
2022/02/21 04:10:14;;;;;;;;;;;;;;;3.08;50.73;100309.27;117397;1183;21826;-53
2022/02/21 04:12:43;;;;;;;;;;;;;;;3.05;50.56;100308.02;117406;1182;21826;-53
2022/02/21 04:15:11;;;;;;;;;;;;;;;3.01;50.69;100307.41;117412;1182;24231;-53
2022/02/21 04:17:40;;;;;;;;;;;;;;;2.94;50.64;100305.38;117346;1182;22925;-58
2022/02/21 04:20:09;;;;;;;;;;;;;;;2.91;50.62;100307.23;117396;1185;21832;-58
2022/02/21 04:22:37;;;;;;;;;;;;;;;2.84;50.73;100305.39;117442;1182;21859;-54
2022/02/21 04:25:06;;;;;;;;;;;;;;;2.74;50.53;100300.01;117464;1186;22622;-53
2022/02/21 04:27:47;;;;;;;;;;;;;;;2.70;50.64;100306.67;117517;1185;23001;-53
2022/02/21 04:30:16;;;;;;;;;;;;;;;2.64;50.58;100308.50;117382;1182;21839;-57
2022/02/21 04:32:46;;;;;;;;;;;;;;;2.61;50.65;100304.98;117458;1185;21843;-59
2022/02/21 04:35:15;;;;;;;;;;;;;;;2.56;50.66;100301.76;117398;1183;21845;-57
2022/02/21 04:37:43;;;;;;;;;;;;;;;2.54;50.53;100303.44;117488;1186;21970;-55
2022/02/21 04:40:13;;;;;;;;;;;;;;;2.50;50.55;100299.21;117420;1186;21826;-53
2022/02/21 04:42:40;;;;;;;;;;;;;;;2.44;50.70;100298.55;117434;1182;21854;-58
2022/02/21 04:45:09;;;;;;;;;;;;;;;2.43;50.60;100298.22;117454;1186;23538;-58
2022/02/21 04:47:37;;;;;;;;;;;;;;;2.42;50.54;100293.52;117419;1183;23438;-52
2022/02/21 04:50:06;;;;;;;;;;;;;;;2.40;50.52;100296.42;117446;1186;23433;-54
2022/02/21 04:52:35;;;;;;;;;;;;;;;2.36;50.58;100297.91;117388;1185;23085;-56
2022/02/21 04:55:03;;;;;;;;;;;;;;;2.33;50.47;100302.69;117418;1189;21844;-53
2022/02/21 04:57:32;;;;;;;;;;;;;;;2.28;50.47;100302.94;117362;1185;21883;-53
2022/02/21 05:00:00;;;;;;;;;;;;;;;2.24;50.46;100300.23;117363;1186;22920;-53
2022/02/21 05:02:30;;;;;;;;;;;;;;;2.23;50.63;100305.60;117418;1186;24120;-58
2022/02/21 05:04:58;;;;;;;;;;;;;;;2.24;50.77;100307.02;117404;1186;21835;-57
2022/02/21 05:07:26;;;;;;;;;;;;;;;2.28;50.84;100309.67;117403;1185;21845;-52
2022/02/21 05:09:54;;;;;;;;;;;;;;;2.28;50.77;100312.30;117368;1186;21835;-53
2022/02/21 05:12:22;;;;;;;;;;;;;;;2.28;50.59;100318.00;117445;1183;21832;-52
2022/02/21 05:14:50;;;;;;;;;;;;;;;2.28;50.74;100319.05;117418;1185;21834;-58
2022/02/21 05:17:18;;;;;;;;;;;;;;;2.31;50.73;100319.27;117436;1182;24123;-55
2022/02/21 05:19:46;;;;;;;;;;;;;;;2.32;50.83;100318.94;117393;1186;21886;-58
2022/02/21 05:22:14;;;;;;;;;;;;;;;2.33;50.79;100316.20;117387;1183;21835;-52
2022/02/21 05:24:42;;;;;;;;;;;;;;;2.34;50.83;100319.67;117599;1186;21841;-53
2022/02/21 05:27:10;;;;;;;;;;;;;;;2.35;50.77;100317.80;117462;1185;21962;-59
2022/02/21 05:29:39;;;;;;;;;;;;;;;2.37;50.85;100323.54;117396;1182;23452;-53
2022/02/21 05:32:10;;;;;;;;;;;;;;;2.41;50.94;100324.15;117362;1182;21849;-53
2022/02/21 05:34:38;;;;;;;;;;;;;;;2.48;51.00;100324.29;117323;1186;24206;-53
2022/02/21 05:37:12;;;;;;;;;;;;;;;2.56;50.96;100320.46;117334;1182;24123;-54
2022/02/21 05:39:41;;;;;;;;;;;;;;;2.63;51.23;100320.42;117402;1182;24136;-54
2022/02/21 05:42:09;;;;;;;;;;;;;;;2.70;51.19;100318.83;117448;1182;23560;-59
2022/02/21 05:44:37;;;;;;;;;;;;;;;2.77;51.13;100315.84;117378;1183;24145;-53
2022/02/21 05:47:06;;;;;;;;;;;;;;;2.85;51.30;100309.73;117358;1182;21839;-59
2022/02/21 05:49:39;;;;;;;;;;;;;;;2.94;51.26;100302.62;117399;1176;23552;-59
2022/02/21 05:52:08;;;;;;;;;;;;;;;3.03;51.36;100292.73;118135;1185;21840;-60
2022/02/21 05:54:35;;;;;;;;;;;;;;;3.11;51.44;100293.38;119098;1185;21844;-53
2022/02/21 05:57:04;;;;;;;;;;;;;;;3.20;51.36;100300.45;117487;1186;21826;-54
2022/02/21 05:59:33;;;;;;;;;;;;;;;3.31;51.56;100300.11;117406;1185;23426;-55
2022/02/21 06:02:01;;;;;;;;;;;;;;;3.45;51.58;100293.39;117477;1186;21877;-55
2022/02/21 06:04:29;;;;;;;;;;;;;;;3.60;51.72;100287.89;117367;1186;22303;-59
2022/02/21 06:06:57;;;;;;;;;;;;;;;3.76;51.84;100283.42;117359;1185;21831;-56
2022/02/21 06:09:25;;;;;;;;;;;;;;;3.92;51.98;100285.56;117410;1183;21845;-55
2022/02/21 06:11:53;;;;;;;;;;;;;;;4.04;51.61;100280.14;117362;1186;21961;-56
2022/02/21 06:14:25;;;;;;;;;;;;;;;4.17;51.82;100281.35;117336;1186;23436;-55
2022/02/21 06:16:53;;;;;;;;;;;;;;;4.31;51.97;100280.83;117478;1185;21826;-55
2022/02/21 06:19:22;;;;;;;;;;;;;;;4.46;52.17;100281.68;117438;1183;23443;-60
2022/02/21 06:21:50;;;;;;;;;;;;;;;4.61;52.20;100279.59;117382;1186;21838;-59
2022/02/21 06:24:18;;;;;;;;;;;;;;;4.76;52.01;100272.78;117353;1186;21876;-55
2022/02/21 06:26:46;;;;;;;;;;;;;;;4.90;52.20;100278.13;117421;1183;23411;-57
2022/02/21 06:29:14;;;;;;;;;;;;;;;5.02;52.28;100277.21;117432;1182;22304;-58
2022/02/21 06:31:43;;;;;;;;;;;;;;;5.19;52.17;100277.52;117389;1185;21835;-55
2022/02/21 06:34:17;;;;;;;;;;;;;;;5.37;52.32;100274.35;117324;1185;21843;-55
2022/02/21 06:36:45;;;;;;;;;;;;;;;5.55;52.64;100278.30;117352;1186;21858;-57
2022/02/21 06:39:14;;;;;;;;;;;;;;;5.72;52.32;100276.67;117407;1185;21838;-55
2022/02/21 06:41:43;;;;;;;;;;;;;;;5.87;52.41;100272.06;117362;1185;22070;-57
2022/02/21 06:44:13;;;;;;;;;;;;;;;5.99;52.54;100271.06;117377;1185;21839;-58
2022/02/21 06:46:42;;;;;;;;;;;;;;;6.12;52.52;100267.68;117360;1185;21847;-56
2022/02/21 06:49:10;;;;;;;;;;;;;;;6.26;52.72;100270.34;117331;1186;21848;-57
2022/02/21 06:51:38;;;;;;;;;;;;;;;6.41;52.51;100278.06;117353;1185;24122;-56
2022/02/21 06:54:07;;;;;;;;;;;;;;;6.54;52.43;100273.56;117610;1182;21842;-55
2022/02/21 06:56:35;;;;;;;;;;;;;;;6.63;52.78;100265.23;117409;1186;24113;-57
2022/02/21 06:59:04;;;;;;;;;;;;;;;6.74;52.52;100263.48;117354;1183;22921;-56
2022/02/21 07:01:32;;;;;;;;;;;;;;;6.84;52.81;100257.04;117402;1183;23675;-56
2022/02/21 07:04:00;;;;;;;;;;;;;;;6.96;52.87;100253.39;117411;1184;21838;-56
2022/02/21 07:06:28;;;;;;;;;;;;;;;7.09;52.83;100256.19;117383;1185;21879;-55
2022/02/21 07:08:57;;;;;;;;;;;;;;;7.23;52.73;100253.92;117359;1185;21821;-57
2022/02/21 07:11:25;;;;;;;;;;;;;;;7.38;52.72;100258.09;117331;1182;21848;-56
2022/02/21 07:13:53;;;;;;;;;;;;;;;7.48;52.69;100263.16;117307;1185;21828;-55
2022/02/21 07:16:24;;;;;;;;;;;;;;;7.54;52.64;100268.02;117382;1185;21848;-56
2022/02/21 07:18:52;;;;;;;;;;;;;;;7.61;52.72;100263.66;117373;1185;23518;-55
2022/02/21 07:21:20;;;;;;;;;;;;;;;7.68;52.67;100259.45;117373;1182;21838;-56
2022/02/21 07:23:48;;;;;;;;;;;;;;;7.81;52.73;100259.06;117384;1182;21848;-56
2022/02/21 07:26:18;;;;;;;;;;;;;;;7.95;52.81;100261.99;117375;1186;23550;-57
2022/02/21 07:28:46;;;;;;;;;;;;;;;8.12;52.79;100268.92;117357;1183;21839;-57
2022/02/21 07:31:14;;;;;;;;;;;;;;;8.27;52.83;100266.23;117371;1186;21839;-58
2022/02/21 07:33:42;;;;;;;;;;;;;;;8.42;52.90;100267.02;117339;1185;21969;-57
2022/02/21 07:36:10;;;;;;;;;;;;;;;8.60;52.84;100262.06;117313;1185;21840;-57
2022/02/21 07:38:38;;;;;;;;;;;;;;;8.80;52.94;100267.89;117421;1185;21844;-57
2022/02/21 07:41:06;;;;;;;;;;;;;;;8.99;52.90;100267.40;117351;1186;22862;-56
2022/02/21 07:43:34;;;;;;;;;;;;;;;9.17;52.90;100265.16;117316;1179;21853;-57
2022/02/21 07:46:02;;;;;;;;;;;;;;;9.32;52.96;100252.41;117373;1183;21839;-55
2022/02/21 07:48:31;;;;;;;;;;;;;;;9.49;52.97;100249.11;117412;1183;21842;-57
2022/02/21 07:51:00;;;;;;;;;;;;;;;9.65;52.94;100244.23;117338;1183;21843;-57
2022/02/21 07:53:29;;;;;;;;;;;;;;;9.81;52.94;100238.27;117366;1182;23443;-59
2022/02/21 07:55:57;;;;;;;;;;;;;;;9.96;52.76;100242.64;117283;1185;23493;-56
2022/02/21 07:58:25;;;;;;;;;;;;;;;10.10;52.90;100240.02;117337;1182;21838;-57
2022/02/21 08:00:54;;;;;;;;;;;;;;;10.23;52.88;100231.96;117359;1183;21848;-57
2022/02/21 08:03:23;;;;;;;;;;;;;;;10.38;52.88;100225.11;117391;1183;21853;-58
2022/02/21 08:05:55;;;;;;;;;;;;;;;10.55;52.76;100219.28;117265;1185;21839;-57
2022/02/21 08:08:26;;;;;;;;;;;;;;;10.73;52.76;100209.88;117313;1181;21838;-56
2022/02/21 08:10:54;;;;;;;;;;;;;;;10.92;52.86;100207.46;117357;1187;22528;-58
2022/02/21 08:13:22;;;;;;;;;;;;;;;11.11;52.70;100202.06;117432;1185;21838;-56
2022/02/21 08:15:50;;;;;;;;;;;;;;;11.27;52.69;100195.99;117344;1186;21848;-57
2022/02/21 08:18:18;;;;;;;;;;;;;;;11.41;52.75;100189.39;117353;1182;21838;-57
2022/02/21 08:20:47;;;;;;;;;;;;;;;11.53;52.48;100185.85;117339;1186;22808;-59
2022/02/21 08:23:15;;;;;;;;;;;;;;;11.68;52.55;100181.33;117372;1185;21839;-57
2022/02/21 08:25:43;;;;;;;;;;;;;;;11.84;52.37;100175.91;117389;1185;21848;-56
2022/02/21 08:28:11;;;;;;;;;;;;;;;11.99;52.40;100172.45;117492;1182;24123;-56
2022/02/21 08:30:39;;;;;;;;;;;;;;;12.13;52.34;100172.16;117392;1183;23416;-58
2022/02/21 08:33:07;;;;;;;;;;;;;;;12.33;52.31;100175.23;117322;1183;23531;-57
2022/02/21 08:35:35;;;;;;;;;;;;;;;12.47;52.04;100173.70;117340;1183;24133;-59
2022/02/21 08:38:04;;;;;;;;;;;;;;;12.56;52.12;100166.96;117402;1182;21838;-58
2022/02/21 08:40:32;;;;;;;;;;;;;;;12.73;51.96;100162.52;117394;1186;22710;-56
2022/02/21 08:43:01;;;;;;;;;;;;;;;12.78;52.11;100156.05;117444;1186;21833;-56
2022/02/21 08:45:30;;;;;;;;;;;;;;;12.91;52.27;100152.39;117403;1182;21851;-57
2022/02/21 08:47:58;;;;;;;;;;;;;;;13.05;52.13;100144.64;117435;1185;21848;-58
2022/02/21 08:50:26;;;;;;;;;;;;;;;13.23;52.09;100133.94;117456;1183;21837;-58
2022/02/21 08:52:54;;;;;;;;;;;;;;;13.46;52.08;100130.48;117369;1182;21851;-57
2022/02/21 08:55:22;;;;;;;;;;;;;;;13.62;51.79;100131.82;117325;1183;21871;-59
2022/02/21 08:57:51;;;;;;;;;;;;;;;13.72;51.74;100121.99;117442;1185;21838;-58
2022/02/21 09:00:19;;;;;;;;;;;;;;;13.85;51.56;100120.07;117419;1185;22972;-57
2022/02/21 09:02:57;;;;;;;;;;;;;;;13.92;51.49;100114.88;117478;1182;21839;-58
2022/02/21 09:05:35;;;;;;;;;;;;;;;14.05;51.29;100115.39;117421;1186;21953;-57
2022/02/21 09:08:04;;;;;;;;;;;;;;;14.18;51.32;100121.69;117400;1183;23513;-57
2022/02/21 09:10:32;;;;;;;;;;;;;;;14.23;50.91;100122.41;117401;1182;23563;-59
2022/02/21 09:13:01;;;;;;;;;;;;;;;14.25;50.81;100129.77;117427;1186;21845;-57
2022/02/21 09:15:29;;;;;;;;;;;;;;;14.27;50.75;100132.36;117381;1183;23512;-58
2022/02/21 09:17:57;;;;;;;;;;;;;;;14.28;50.44;100129.31;117349;1188;24133;-57
2022/02/21 09:20:26;;;;;;;;;;;;;;;14.35;50.79;100132.27;117154;1185;23521;-59
2022/02/21 09:22:54;;;;;;;;;;;;;;;14.45;50.01;100136.04;117355;1185;23459;-57
2022/02/21 09:25:23;;;;;;;;;;;;;;;14.51;50.18;100132.46;117395;1182;22979;-59
2022/02/21 09:27:52;;;;;;;;;;;;;;;14.57;50.13;100130.35;117501;1182;22928;-58
2022/02/21 09:30:20;;;;;;;;;;;;;;;14.60;50.11;100128.80;117359;1182;24114;-59
2022/02/21 09:32:49;;;;;;;;;;;;;;;14.59;49.66;100120.73;117394;1185;24136;-60
2022/02/21 09:35:20;;;;;;;;;;;;;;;14.57;49.66;100121.84;117401;1185;23696;-58
2022/02/21 09:37:48;;;;;;;;;;;;;;;14.55;49.64;100119.81;117697;1185;21838;-59
2022/02/21 09:40:16;;;;;;;;;;;;;;;14.55;49.71;100116.27;117311;1185;21838;-60
2022/02/21 09:42:44;;;;;;;;;;;;;;;14.57;49.29;100106.52;117422;1182;23416;-59
2022/02/21 09:45:14;;;;;;;;;;;;;;;14.58;49.25;100102.58;117364;1185;21842;-58
2022/02/21 09:47:42;;;;;;;;;;;;;;;14.62;49.06;100098.92;117326;1186;22603;-58
2022/02/21 09:50:30;;;;;;;;;;;;;;;14.65;48.89;100093.16;117309;1185;23504;-58
2022/02/21 09:53:01;;;;;;;;;;;;;;;14.71;49.13;100085.73;117352;1182;21879;-58
2022/02/21 09:55:29;;;;;;;;;;;;;;;14.78;49.05;100083.40;117307;1185;21865;-59
2022/02/21 09:57:58;;;;;;;;;;;;;;;14.82;49.20;100071.59;117314;1180;21839;-59
2022/02/21 10:00:29;;;;;;;;;;;;;;;14.89;49.27;100067.30;117395;1185;23597;-58
2022/02/21 10:02:57;;;;;;;;;;;;;;;14.97;48.73;100063.48;117405;1182;24180;-60
2022/02/21 10:05:26;;;;;;;;;;;;;;;15.05;49.07;100055.59;117378;1185;22364;-59
2022/02/21 10:07:55;;;;;;;;;;;;;;;15.20;49.07;100050.29;117323;1182;24134;-60
2022/02/21 10:10:24;;;;;;;;;;;;;;;15.29;49.03;100048.73;117355;1185;21839;-57
2022/02/21 10:12:58;;;;;;;;;;;;;;;15.39;49.01;100045.15;117414;1185;22892;-57
2022/02/21 10:15:27;;;;;;;;;;;;;;;15.51;48.87;100040.32;117383;1182;21848;-57
2022/02/21 10:18:08;;;;;;;;;;;;;;;15.56;48.63;100034.98;117394;1185;22810;-58
2022/02/21 10:20:57;;;;;;;;;;;;;;;15.63;47.65;100035.61;117431;1182;23079;-58
2022/02/21 10:23:33;;;;;;;;;;;;;;;15.56;46.18;100025.42;117382;1185;23175;-57
2022/02/21 10:37:29;;;;;;;5.50;3.30;;;;;;;15.63;47.47;100008.18;115285;1203;556325;-67
2022/02/21 10:40:05;;;;;;;5.20;2.70;;;;;;;15.93;47.27;99992.52;116834;1189;22982;-55
2022/02/21 10:42:37;;;;;;;6.30;3.20;;;;;;;16.03;46.29;99992.66;116709;1189;23519;-67
2022/02/21 10:45:11;;;;;;;7.20;3.70;;;;;;;16.06;47.02;99984.56;116754;1189;22975;-56
2022/02/21 10:47:40;;;;;;;5.20;2.30;;;;;;;16.10;46.08;99986.54;116770;1189;23564;-66
2022/02/21 10:50:10;;;;;;;3.90;1.80;;;;;;;16.09;46.73;99981.10;116719;1192;23767;-67
2022/02/21 10:52:39;;;;;;;7.20;2.50;;;;;;;16.15;46.94;99978.71;116712;1192;23560;-68
2022/02/21 10:55:09;;;;;;;5.70;2.70;;;;;;;16.21;46.67;99976.34;116747;1191;22650;-55
2022/02/21 10:57:38;;;;;;;;;;;;;;;16.21;46.71;99966.97;116646;1192;21848;-68
2022/02/21 11:00:09;;;;;;;6.10;2.40;;;;;;;16.21;46.66;99959.34;116770;1191;21858;-65
2022/02/21 11:02:42;;;;;;;6.70;2.50;;;;;;;16.26;46.60;99951.73;116719;1191;23453;-55
2022/02/21 11:05:10;;;;;;;4.00;2.10;;;;;;;16.28;46.00;99956.41;116703;1189;21875;-55
2022/02/21 11:07:41;;;;;;;6.60;2.50;;;;;;;16.24;45.88;99955.88;116748;1192;21861;-55
2022/02/21 11:10:10;;;;;;;6.50;2.90;;;;;;;16.23;46.28;99947.06;116742;1192;22907;-57
2022/02/21 11:12:42;;;;;;;;;;;;;;;16.23;45.92;99940.33;116795;1191;21846;-55
2022/02/21 11:15:10;;;;;;;6.50;2.80;;;;;;;16.21;45.57;99940.24;116625;1192;23576;-66
2022/02/21 11:17:45;;;;;;;5.30;2.30;;;;;;;16.25;46.14;99935.80;116692;1191;23486;-66
2022/02/21 11:20:13;;;;;;;5.30;2.50;;;;;;;16.34;45.85;99936.15;116655;1191;23490;-66
2022/02/21 11:22:41;;;;;;;4.40;2.00;;;;;;;16.45;45.94;99932.45;116605;1188;23493;-66
2022/02/21 11:25:20;;;;;;;4.30;1.90;;;;;;;16.54;46.04;99926.05;116624;1186;23552;-55
2022/02/21 11:28:13;;;;;;;5.10;2.10;;;;;;;16.58;46.17;99921.45;116663;1181;23040;-56
2022/02/21 11:30:42;;;;;;;5.70;2.00;;;;;;;16.50;45.40;99917.73;116548;1186;21879;-67
2022/02/21 11:33:12;;;;;;;4.00;1.80;;;;;;;16.35;45.23;99910.60;116585;1188;23559;-67
2022/02/21 11:36:02;;;;;;;5.50;2.50;;;;;;;16.24;44.47;99910.20;116690;1186;23640;-55
2022/02/21 11:38:30;;;;;;;4.50;1.90;;;;;;;16.08;43.70;99906.27;116664;1188;21879;-55
2022/02/21 11:41:01;;;;;;;3.90;2.00;;;;;;;16.01;43.59;99897.02;116634;1187;23459;-55
2022/02/21 11:43:32;;;;;;;6.20;1.70;;;;;;;16.04;43.91;99897.95;116660;1188;22011;-65
2022/02/21 11:46:03;;;;;;;4.20;2.00;;;;;;;16.08;44.57;99897.98;116556;1189;22629;-55
2022/02/21 11:48:57;;;;;;;5.30;1.90;;;;;;;16.08;44.41;99885.91;116606;1188;21914;-55
2022/02/21 11:51:36;;;;;;;4.30;2.20;;;;;;;16.07;44.36;99878.89;116700;1189;23493;-67
2022/02/21 11:54:09;;;;;;;4.10;2.00;;;;;;;16.10;44.54;99876.98;116677;1191;24179;-55
2022/02/21 11:56:53;;;;;;;5.70;2.20;;;;;;;16.17;44.44;99861.62;116692;1191;22060;-66
2022/02/21 11:59:21;;;;;;;5.00;2.30;;;;;;;16.26;44.09;99864.45;116707;1190;23460;-54
2022/02/21 12:02:06;;;;;;;5.40;2.10;;;;;;;16.33;44.23;99857.92;116729;1189;22923;-66
2022/02/21 12:04:56;;;;;;;5.50;2.00;;;;;;;16.41;44.57;99852.10;116640;1192;21848;-64
2022/02/21 12:07:36;;;;;;;4.40;2.10;;;;;;;16.48;44.75;99849.83;116677;1191;22155;-65
2022/02/21 12:10:21;;;;;;;5.50;2.60;;;;;;;16.49;44.50;99847.50;116715;1189;24162;-55
2022/02/21 12:12:57;;;;;;;6.70;3.40;;;;;;;16.46;44.69;99839.80;116963;1189;22027;-55
2022/02/21 12:16:08;;;;;;;7.20;3.10;;;;;;;16.45;45.01;99840.38;116747;1189;23465;-65
2022/02/21 12:18:41;;;;;;;8.70;3.00;;;;;;;16.42;44.90;99832.55;116819;1189;22946;-55
2022/02/21 12:21:10;;;;;;;5.30;2.50;;;;;;;16.38;44.99;99831.15;116777;1192;23494;-55
2022/02/21 12:24:01;;;;;;;5.50;2.60;;;;;;;16.31;42.92;99841.40;116839;1189;23460;-66
2022/02/21 12:26:32;;;;;;;5.80;2.60;;;;;;;16.19;43.94;99837.11;116938;1189;23494;-60
2022/02/21 12:29:20;;;;;;;4.50;2.30;;;;;;;16.18;44.25;99833.63;116887;1189;21976;-55
2022/02/21 12:32:08;;;;;;;8.00;4.30;;;;;;;16.19;43.37;99820.11;116840;1189;21851;-56
2022/02/21 12:34:38;;;;;;;6.80;2.30;;;;;;;16.27;44.13;99824.58;116827;1189;23311;-66
2022/02/21 12:37:08;;;;;;;4.20;2.10;;;;;;;16.39;44.14;99829.35;116699;1188;22014;-56
2022/02/21 12:39:40;;;;;;;8.30;3.20;;;;;;;16.41;44.20;99820.58;116969;1189;22973;-55
2022/02/21 12:42:09;;;;;;;3.90;2.50;;;;;;;16.42;44.39;99814.34;116895;1189;22927;-67
2022/02/21 12:44:37;;;;;;;5.80;2.40;;;;;;;16.42;43.39;99812.76;116852;1189;21876;-56
2022/02/21 12:47:06;;;;;;;5.80;3.10;;;;;;;16.41;43.67;99806.76;116880;1186;23633;-64